createdAt,value
2023-11-05T00:00:25.247Z,88.31
2023-11-05T00:00:57.915Z,88.20
2023-11-05T00:01:30.712Z,88.41
2023-11-05T00:02:03.444Z,88.41
2023-11-05T00:02:36.174Z,88.41
2023-11-05T00:03:09.010Z,88.41
2023-11-05T00:03:41.712Z,88.41
2023-11-05T00:04:14.527Z,88.20
2023-11-05T00:04:47.254Z,87.79
2023-11-05T00:05:19.983Z,87.79
2023-11-05T00:05:52.626Z,88.00
2023-11-05T00:06:25.350Z,88.00
2023-11-05T00:06:58.017Z,88.00
2023-11-05T00:07:30.707Z,88.10
2023-11-05T00:08:03.388Z,87.90
2023-11-05T00:08:36.058Z,87.69
2023-11-05T00:09:08.719Z,87.59
2023-11-05T00:09:41.417Z,87.59
2023-11-05T00:10:14.142Z,87.79
2023-11-05T00:10:46.803Z,87.69
2023-11-05T00:11:19.487Z,87.49
2023-11-05T00:11:52.173Z,87.49
2023-11-05T00:12:24.815Z,87.79
2023-11-05T00:12:57.575Z,87.79
2023-11-05T00:13:30.272Z,87.79
2023-11-05T00:14:02.991Z,87.69
2023-11-05T00:14:35.675Z,87.90
2023-11-05T00:15:08.344Z,88.10
2023-11-05T00:15:41.012Z,87.90
2023-11-05T00:16:13.751Z,87.69
2023-11-05T00:16:44.792Z,87.69
2023-11-05T00:17:17.479Z,87.79
2023-11-05T00:17:50.163Z,87.79
2023-11-05T00:18:22.836Z,87.49
2023-11-05T00:18:55.535Z,87.59
2023-11-05T00:19:28.292Z,87.59
2023-11-05T00:20:00.954Z,87.69
2023-11-05T00:20:33.627Z,87.69
2023-11-05T00:21:06.313Z,87.90
2023-11-05T00:21:39.058Z,87.79
2023-11-05T00:22:11.732Z,87.69
2023-11-05T00:22:44.440Z,87.79
2023-11-05T00:23:17.096Z,87.69
2023-11-05T00:23:49.775Z,87.59
2023-11-05T00:24:22.442Z,87.59
2023-11-05T00:24:55.123Z,87.59
2023-11-05T00:25:27.899Z,87.59
2023-11-05T00:26:00.617Z,87.59
2023-11-05T00:26:33.250Z,87.49
2023-11-05T00:27:05.934Z,87.59
2023-11-05T00:27:38.627Z,87.69
2023-11-05T00:28:11.300Z,87.59
2023-11-05T00:28:43.952Z,87.69
2023-11-05T00:29:16.667Z,87.79
2023-11-05T00:29:49.350Z,87.79
2023-11-05T00:30:21.988Z,87.69
2023-11-05T00:30:54.654Z,87.69
2023-11-05T00:31:27.362Z,87.90
2023-11-05T00:32:00.003Z,87.90
2023-11-05T00:32:32.824Z,87.90
2023-11-05T00:33:05.639Z,87.69
2023-11-05T00:33:38.485Z,87.69
2023-11-05T00:34:11.481Z,87.79
2023-11-05T00:34:37.763Z,88.00
2023-11-05T00:35:10.479Z,88.20
2023-11-05T00:35:43.143Z,88.00
2023-11-05T00:36:15.802Z,88.10
2023-11-05T00:36:48.523Z,88.31
2023-11-05T00:37:21.255Z,88.31
2023-11-05T00:37:53.973Z,88.20
2023-11-05T00:38:26.656Z,87.90
2023-11-05T00:38:59.340Z,88.00
2023-11-05T00:39:32.014Z,87.90
2023-11-05T00:40:06.430Z,87.69
2023-11-05T00:40:32.925Z,88.00
2023-11-05T00:41:05.584Z,88.31
2023-11-05T00:41:38.228Z,88.31
2023-11-05T00:42:10.908Z,88.20
2023-11-05T00:42:43.596Z,88.00
2023-11-05T00:43:16.355Z,88.00
2023-11-05T00:43:49.018Z,88.10
2023-11-05T00:44:21.686Z,88.10
2023-11-05T00:44:54.363Z,88.00
2023-11-05T00:45:27.034Z,87.90
2023-11-05T00:45:59.726Z,87.79
2023-11-05T00:46:32.462Z,87.69
2023-11-05T00:47:05.097Z,87.59
2023-11-05T00:47:37.834Z,87.79
2023-11-05T00:48:10.523Z,87.79
2023-11-05T00:48:43.204Z,87.90
2023-11-05T00:49:15.922Z,87.90
2023-11-05T00:49:48.840Z,87.79
2023-11-05T00:50:19.700Z,87.90
2023-11-05T00:50:52.379Z,87.90
2023-11-05T00:51:25.061Z,88.00
2023-11-05T00:51:58.910Z,88.10
2023-11-05T00:52:25.881Z,88.00
2023-11-05T00:52:58.584Z,88.10
2023-11-05T00:53:31.227Z,88.20
2023-11-05T00:54:03.905Z,88.31
2023-11-05T00:54:36.584Z,88.20
2023-11-05T00:55:09.288Z,88.41
2023-11-05T00:55:41.961Z,88.20
2023-11-05T00:56:14.672Z,88.41
2023-11-05T00:56:47.342Z,88.41
2023-11-05T00:57:20.024Z,88.41
2023-11-05T00:57:52.723Z,88.51
2023-11-05T00:58:25.419Z,88.31
2023-11-05T00:58:58.100Z,88.31
2023-11-05T00:59:31.384Z,88.20
2023-11-05T00:59:57.520Z,88.31
2023-11-05T01:00:30.232Z,88.31
2023-11-05T01:01:02.924Z,88.31
2023-11-05T01:01:35.597Z,88.31
2023-11-05T01:02:08.333Z,88.41
2023-11-05T01:02:41.179Z,88.41
2023-11-05T01:03:13.947Z,88.31
2023-11-05T01:03:46.736Z,88.20
2023-11-05T01:04:17.831Z,88.20
2023-11-05T01:04:50.600Z,88.20
2023-11-05T01:05:23.273Z,88.31
2023-11-05T01:05:56.011Z,88.41
2023-11-05T01:06:28.679Z,88.62
2023-11-05T01:07:01.379Z,88.72
2023-11-05T01:07:34.068Z,88.41
2023-11-05T01:08:06.725Z,88.31
2023-11-05T01:08:39.391Z,88.51
2023-11-05T01:09:12.097Z,88.62
2023-11-05T01:09:44.769Z,88.72
2023-11-05T01:10:17.463Z,88.62
2023-11-05T01:10:50.116Z,88.72
2023-11-05T01:11:22.795Z,88.72
2023-11-05T01:11:55.489Z,88.41
2023-11-05T01:12:28.158Z,88.51
2023-11-05T01:13:00.857Z,88.51
2023-11-05T01:13:33.556Z,88.51
2023-11-05T01:14:06.235Z,88.62
2023-11-05T01:14:38.913Z,88.51
2023-11-05T01:15:11.651Z,88.51
2023-11-05T01:15:44.396Z,88.62
2023-11-05T01:16:17.100Z,88.62
2023-11-05T01:16:49.763Z,88.51
2023-11-05T01:17:22.882Z,88.62
2023-11-05T01:17:49.199Z,88.51
2023-11-05T01:18:21.871Z,88.51
2023-11-05T01:18:54.557Z,88.62
2023-11-05T01:19:27.287Z,88.41
2023-11-05T01:19:59.926Z,88.51
2023-11-05T01:20:32.607Z,88.41
2023-11-05T01:21:05.272Z,88.51
2023-11-05T01:21:37.953Z,88.51
2023-11-05T01:22:10.640Z,88.51
2023-11-05T01:22:43.349Z,88.62
2023-11-05T01:23:14.413Z,88.62
2023-11-05T01:23:47.098Z,88.72
2023-11-05T01:24:19.781Z,88.51
2023-11-05T01:24:52.457Z,88.20
2023-11-05T01:25:25.126Z,88.20
2023-11-05T01:25:57.845Z,88.51
2023-11-05T01:26:30.492Z,88.72
2023-11-05T01:27:03.167Z,88.51
2023-11-05T01:27:35.890Z,88.72
2023-11-05T01:28:08.626Z,88.62
2023-11-05T01:28:41.281Z,88.82
2023-11-05T01:29:14.017Z,88.72
2023-11-05T01:29:46.656Z,88.41
2023-11-05T01:30:19.353Z,88.41
2023-11-05T01:30:52.011Z,88.27
2023-11-05T01:31:24.719Z,88.47
2023-11-05T01:31:57.352Z,88.47
2023-11-05T01:32:30.139Z,88.37
2023-11-05T01:33:02.925Z,88.06
2023-11-05T01:33:35.643Z,88.06
2023-11-05T01:34:08.391Z,88.06
2023-11-05T01:34:41.132Z,88.37
2023-11-05T01:35:13.786Z,88.47
2023-11-05T01:35:46.540Z,88.37
2023-11-05T01:36:19.179Z,88.37
2023-11-05T01:36:51.860Z,88.47
2023-11-05T01:37:24.550Z,88.68
2023-11-05T01:37:57.219Z,88.68
2023-11-05T01:38:29.885Z,88.17
2023-11-05T01:39:02.608Z,88.27
2023-11-05T01:39:35.458Z,88.47
2023-11-05T01:40:08.199Z,88.47
2023-11-05T01:40:40.921Z,88.37
2023-11-05T01:41:13.729Z,88.27
2023-11-05T01:41:46.406Z,88.27
2023-11-05T01:42:19.130Z,88.27
2023-11-05T01:42:51.794Z,88.06
2023-11-05T01:43:24.501Z,87.96
2023-11-05T01:43:57.173Z,88.06
2023-11-05T01:44:29.823Z,88.17
2023-11-05T01:45:02.532Z,88.27
2023-11-05T01:45:35.213Z,88.17
2023-11-05T01:46:07.914Z,88.17
2023-11-05T01:46:40.562Z,88.17
2023-11-05T01:47:13.217Z,88.06
2023-11-05T01:47:45.961Z,87.96
2023-11-05T01:48:18.732Z,88.17
2023-11-05T01:48:51.520Z,88.17
2023-11-05T01:49:24.255Z,88.17
2023-11-05T01:49:56.899Z,88.27
2023-11-05T01:50:29.578Z,87.96
2023-11-05T01:51:02.258Z,87.85
2023-11-05T01:51:29.301Z,87.96
2023-11-05T01:52:02.065Z,87.85
2023-11-05T01:52:34.856Z,87.85
2023-11-05T01:53:07.507Z,87.96
2023-11-05T01:53:40.191Z,87.85
2023-11-05T01:54:12.862Z,87.85
2023-11-05T01:54:45.531Z,87.96
2023-11-05T01:55:18.314Z,87.96
2023-11-05T01:55:50.947Z,87.96
2023-11-05T01:56:23.625Z,87.96
2023-11-05T01:56:56.296Z,87.92
2023-11-05T01:57:28.968Z,87.96
2023-11-05T01:58:01.669Z,88.17
2023-11-05T01:58:34.370Z,88.33
2023-11-05T01:59:07.032Z,88.02
2023-11-05T01:59:39.706Z,88.02
2023-11-05T02:00:12.398Z,87.82
2023-11-05T02:00:45.082Z,87.82
2023-11-05T02:01:17.858Z,87.71
2023-11-05T02:01:50.557Z,87.82
2023-11-05T02:02:23.230Z,87.92
2023-11-05T02:02:55.915Z,87.92
2023-11-05T02:03:28.609Z,87.71
2023-11-05T02:04:01.314Z,87.51
2023-11-05T02:04:34.011Z,87.51
2023-11-05T02:05:06.870Z,87.51
2023-11-05T02:05:39.661Z,87.51
2023-11-05T02:06:12.311Z,87.61
2023-11-05T02:06:44.981Z,87.61
2023-11-05T02:07:17.675Z,87.92
2023-11-05T02:07:50.349Z,88.02
2023-11-05T02:08:23.080Z,88.23
2023-11-05T02:08:55.735Z,88.43
2023-11-05T02:09:28.410Z,88.23
2023-11-05T02:10:01.123Z,88.23
2023-11-05T02:10:33.789Z,88.53
2023-11-05T02:11:06.463Z,88.74
2023-11-05T02:11:39.203Z,88.64
2023-11-05T02:12:11.850Z,88.53
2023-11-05T02:12:44.615Z,88.64
2023-11-05T02:13:17.356Z,88.74
2023-11-05T02:13:50.016Z,88.95
2023-11-05T02:14:22.708Z,89.15
2023-11-05T02:14:55.401Z,89.04
2023-11-05T02:15:28.047Z,89.15
2023-11-05T02:16:00.791Z,89.56
2023-11-05T02:16:33.471Z,89.56
2023-11-05T02:17:06.144Z,89.46
2023-11-05T02:17:38.856Z,89.46
2023-11-05T02:18:11.616Z,89.87
2023-11-05T02:18:42.695Z,90.08
2023-11-05T02:19:15.347Z,90.08
2023-11-05T02:19:48.004Z,90.28
2023-11-05T02:20:20.705Z,90.48
2023-11-05T02:20:53.378Z,90.48
2023-11-05T02:21:26.072Z,90.80
2023-11-05T02:21:58.746Z,91.10
2023-11-05T02:22:31.473Z,91.41
2023-11-05T02:23:04.141Z,91.82
2023-11-05T02:23:36.819Z,92.17
2023-11-05T02:24:09.487Z,92.48
2023-11-05T02:24:42.196Z,92.69
2023-11-05T02:25:14.890Z,92.79
2023-11-05T02:25:47.556Z,93.40
2023-11-05T02:26:20.218Z,93.40
2023-11-05T02:26:52.904Z,93.51
2023-11-05T02:27:25.590Z,93.61
2023-11-05T02:27:58.352Z,93.71
2023-11-05T02:28:31.034Z,93.82
2023-11-05T02:29:03.698Z,94.12
2023-11-05T02:29:36.385Z,94.37
2023-11-05T02:30:09.111Z,94.58
2023-11-05T02:30:41.787Z,94.99
2023-11-05T02:31:14.531Z,95.09
2023-11-05T02:31:47.165Z,95.30
2023-11-05T02:32:19.849Z,95.50
2023-11-05T02:32:52.571Z,95.61
2023-11-05T02:33:25.219Z,95.92
2023-11-05T02:33:57.948Z,96.02
2023-11-05T02:34:30.776Z,96.12
2023-11-05T02:35:03.554Z,96.12
2023-11-05T02:35:36.294Z,96.22
2023-11-05T02:36:08.951Z,96.33
2023-11-05T02:36:41.627Z,96.33
2023-11-05T02:37:14.328Z,96.43
2023-11-05T02:37:47.044Z,96.64
2023-11-05T02:38:19.705Z,96.73
2023-11-05T02:38:52.381Z,96.94
2023-11-05T02:39:25.048Z,96.94
2023-11-05T02:39:57.722Z,97.05
2023-11-05T02:40:30.437Z,97.19
2023-11-05T02:41:03.108Z,97.19
2023-11-05T02:41:35.812Z,97.40
2023-11-05T02:42:08.446Z,97.61
2023-11-05T02:42:41.152Z,97.81
2023-11-05T02:43:13.834Z,97.91
2023-11-05T02:43:46.501Z,97.91
2023-11-05T02:44:19.171Z,97.91
2023-11-05T02:44:51.898Z,98.02
2023-11-05T02:45:24.544Z,98.12
2023-11-05T02:45:57.219Z,98.22
2023-11-05T02:46:29.928Z,98.22
2023-11-05T02:47:02.588Z,98.33
2023-11-05T02:47:35.686Z,98.33
2023-11-05T02:48:02.107Z,98.33
2023-11-05T02:48:34.846Z,98.43
2023-11-05T02:49:07.647Z,98.43
2023-11-05T02:49:40.326Z,98.43
2023-11-05T02:50:13.037Z,98.53
2023-11-05T02:50:45.707Z,98.53
2023-11-05T02:51:18.395Z,98.63
2023-11-05T02:51:51.056Z,98.63
2023-11-05T02:52:23.744Z,98.74
2023-11-05T02:52:56.433Z,98.94
2023-11-05T02:53:29.107Z,99.05
2023-11-05T02:54:01.781Z,99.15
2023-11-05T02:54:34.500Z,99.15
2023-11-05T02:55:07.156Z,99.15
2023-11-05T02:55:39.859Z,99.15
2023-11-05T02:56:12.495Z,99.15
2023-11-05T02:56:45.166Z,99.25
2023-11-05T02:57:17.858Z,99.35
2023-11-05T02:57:50.585Z,99.46
2023-11-05T02:58:23.249Z,99.56
2023-11-05T02:58:55.902Z,99.56
2023-11-05T02:59:28.574Z,99.56
2023-11-05T03:00:01.266Z,99.77
2023-11-05T03:00:36.479Z,99.97
2023-11-05T03:01:03.484Z,99.99
2023-11-05T03:01:36.237Z,99.99
2023-11-05T03:02:08.909Z,99.99
2023-11-05T03:02:41.664Z,99.99
2023-11-05T03:03:14.412Z,99.99
2023-11-05T03:03:47.109Z,99.99
2023-11-05T03:04:19.910Z,99.99
2023-11-05T03:04:52.778Z,99.99
2023-11-05T03:05:25.485Z,99.99
2023-11-05T03:05:58.148Z,99.99
2023-11-05T03:06:30.854Z,99.99
2023-11-05T03:07:03.627Z,99.99
2023-11-05T03:07:36.433Z,99.99
2023-11-05T03:08:09.142Z,99.99
2023-11-05T03:08:41.828Z,99.99
2023-11-05T03:09:14.466Z,99.99
2023-11-05T03:09:47.136Z,99.99
2023-11-05T03:10:19.814Z,99.99
2023-11-05T03:10:52.539Z,99.99
2023-11-05T03:11:25.207Z,99.99
2023-11-05T03:11:57.930Z,99.99
2023-11-05T03:12:30.584Z,99.99
2023-11-05T03:13:03.309Z,99.99
2023-11-05T03:13:36.054Z,99.99
2023-11-05T03:14:08.740Z,99.99
2023-11-05T03:14:41.414Z,99.99
2023-11-05T03:15:14.118Z,99.99
2023-11-05T03:15:46.763Z,99.99
2023-11-05T03:16:19.480Z,99.99
2023-11-05T03:16:52.226Z,99.99
2023-11-05T03:17:25.008Z,99.99
2023-11-05T03:17:57.776Z,99.99
2023-11-05T03:18:30.556Z,99.99
2023-11-05T03:19:03.288Z,99.99
2023-11-05T03:19:36.049Z,99.99
2023-11-05T03:20:08.772Z,99.99
2023-11-05T03:20:41.596Z,99.99
2023-11-05T03:21:14.288Z,99.99
2023-11-05T03:21:46.984Z,99.99
2023-11-05T03:22:19.649Z,99.99
2023-11-05T03:22:52.325Z,99.99
2023-11-05T03:23:25.003Z,99.99
2023-11-05T03:23:57.680Z,99.99
2023-11-05T03:24:30.365Z,99.99
2023-11-05T03:25:03.094Z,99.99
2023-11-05T03:25:35.807Z,99.99
2023-11-05T03:26:08.470Z,99.99
2023-11-05T03:26:41.161Z,99.99
2023-11-05T03:27:13.839Z,99.99
2023-11-05T03:27:46.526Z,99.99
2023-11-05T03:28:19.247Z,99.99
2023-11-05T03:28:51.894Z,99.99
2023-11-05T03:29:24.574Z,99.99
2023-11-05T03:29:57.260Z,99.99
2023-11-05T03:30:29.936Z,99.99
2023-11-05T03:31:02.708Z,99.99
2023-11-05T03:31:35.435Z,99.99
2023-11-05T03:32:08.137Z,99.99
2023-11-05T03:32:40.933Z,99.99
2023-11-05T03:33:13.700Z,99.99
2023-11-05T03:33:46.380Z,99.99
2023-11-05T03:34:19.074Z,99.99
2023-11-05T03:34:51.770Z,99.99
2023-11-05T03:35:24.434Z,99.99
2023-11-05T03:35:57.146Z,99.99
2023-11-05T03:36:29.827Z,99.99
2023-11-05T03:37:02.596Z,99.99
2023-11-05T03:37:35.335Z,99.99
2023-11-05T03:38:07.999Z,99.99
2023-11-05T03:38:40.672Z,99.99
2023-11-05T03:39:11.798Z,99.99
2023-11-05T03:39:42.856Z,99.99
2023-11-05T03:40:15.548Z,99.99
2023-11-05T03:40:48.236Z,99.99
2023-11-05T03:41:20.945Z,99.99
2023-11-05T03:41:53.664Z,99.99
2023-11-05T03:42:26.441Z,99.99
2023-11-05T03:42:59.133Z,99.99
2023-11-05T03:43:31.865Z,99.99
2023-11-05T03:44:04.505Z,99.99
2023-11-05T03:44:37.212Z,99.99
2023-11-05T03:45:09.905Z,99.99
2023-11-05T03:45:42.619Z,99.99
2023-11-05T03:46:15.303Z,99.99
2023-11-05T03:46:47.963Z,99.99
2023-11-05T03:47:20.662Z,99.99
2023-11-05T03:47:53.410Z,99.99
2023-11-05T03:48:26.113Z,99.99
2023-11-05T03:48:58.939Z,99.99
2023-11-05T03:49:31.631Z,99.99
2023-11-05T03:50:04.321Z,99.99
2023-11-05T03:50:36.968Z,99.99
2023-11-05T03:51:09.661Z,99.99
2023-11-05T03:51:42.311Z,99.99
2023-11-05T03:52:15.012Z,99.99
2023-11-05T03:52:47.707Z,99.99
2023-11-05T03:53:20.343Z,99.99
2023-11-05T03:53:53.011Z,99.99
2023-11-05T03:54:25.684Z,99.99
2023-11-05T03:54:58.371Z,99.99
2023-11-05T03:55:31.113Z,99.99
2023-11-05T03:56:03.920Z,99.99
2023-11-05T03:56:36.676Z,99.99
2023-11-05T03:57:09.359Z,99.99
2023-11-05T03:57:42.040Z,99.99
2023-11-05T03:58:14.720Z,99.99
2023-11-05T03:58:47.384Z,99.99
2023-11-05T03:59:20.098Z,99.99
2023-11-05T03:59:52.797Z,99.99
2023-11-05T04:00:25.457Z,99.99
2023-11-05T04:00:58.161Z,99.99
2023-11-05T04:01:30.871Z,99.99
2023-11-05T04:02:03.535Z,99.99
2023-11-05T04:02:36.366Z,99.99
2023-11-05T04:03:09.177Z,99.99
2023-11-05T04:03:41.926Z,99.99
2023-11-05T04:04:14.655Z,99.99
2023-11-05T04:04:47.372Z,99.99
2023-11-05T04:05:20.090Z,99.99
2023-11-05T04:05:52.818Z,99.99
2023-11-05T04:06:25.462Z,99.99
2023-11-05T04:06:58.131Z,99.99
2023-11-05T04:07:30.827Z,99.99
2023-11-05T04:08:03.530Z,99.99
2023-11-05T04:08:36.195Z,99.99
2023-11-05T04:09:08.915Z,99.99
2023-11-05T04:09:41.566Z,99.99
2023-11-05T04:10:14.359Z,99.99
2023-11-05T04:10:47.045Z,99.99
2023-11-05T04:11:19.712Z,99.99
2023-11-05T04:11:52.385Z,99.99
2023-11-05T04:12:25.085Z,99.99
2023-11-05T04:12:57.752Z,99.99
2023-11-05T04:13:30.456Z,99.99
2023-11-05T04:14:03.110Z,99.99
2023-11-05T04:14:35.782Z,99.99
2023-11-05T04:15:08.449Z,99.99
2023-11-05T04:15:41.163Z,99.99
2023-11-05T04:16:13.869Z,99.99
2023-11-05T04:16:46.553Z,99.99
2023-11-05T04:17:19.229Z,99.99
2023-11-05T04:17:51.959Z,99.99
2023-11-05T04:18:24.684Z,99.99
2023-11-05T04:18:57.436Z,99.99
2023-11-05T04:19:30.176Z,99.99
2023-11-05T04:20:02.857Z,99.99
2023-11-05T04:20:35.618Z,99.99
2023-11-05T04:21:08.283Z,99.99
2023-11-05T04:21:40.964Z,99.99
2023-11-05T04:22:13.656Z,99.99
2023-11-05T04:22:46.484Z,99.99
2023-11-05T04:23:19.261Z,99.99
2023-11-05T04:23:51.913Z,99.99
2023-11-05T04:24:24.595Z,99.99
2023-11-05T04:24:57.261Z,99.99
2023-11-05T04:25:29.955Z,99.99
2023-11-05T04:26:02.602Z,99.99
2023-11-05T04:26:35.320Z,99.99
2023-11-05T04:27:07.957Z,99.99
2023-11-05T04:27:40.822Z,99.99
2023-11-05T04:28:13.515Z,99.99
2023-11-05T04:28:46.165Z,99.99
2023-11-05T04:29:18.834Z,99.99
2023-11-05T04:29:51.566Z,99.99
2023-11-05T04:30:24.210Z,99.99
2023-11-05T04:30:56.900Z,99.99
2023-11-05T04:31:29.660Z,99.99
2023-11-05T04:32:02.336Z,99.99
2023-11-05T04:32:35.146Z,99.99
2023-11-05T04:33:06.349Z,99.99
2023-11-05T04:33:39.184Z,99.99
2023-11-05T04:34:11.921Z,99.99
2023-11-05T04:34:44.676Z,99.99
2023-11-05T04:35:17.415Z,99.99
2023-11-05T04:35:50.108Z,99.99
2023-11-05T04:36:22.804Z,99.99
2023-11-05T04:36:55.461Z,99.99
2023-11-05T04:37:28.187Z,99.99
2023-11-05T04:38:00.882Z,99.99
2023-11-05T04:38:33.565Z,99.99
2023-11-05T04:39:06.251Z,99.99
2023-11-05T04:39:38.957Z,99.99
2023-11-05T04:40:11.660Z,99.99
2023-11-05T04:40:44.350Z,99.99
2023-11-05T04:41:16.989Z,99.99
2023-11-05T04:41:49.700Z,99.99
2023-11-05T04:42:22.375Z,99.99
2023-11-05T04:42:55.097Z,99.99
2023-11-05T04:43:27.761Z,99.99
2023-11-05T04:44:00.425Z,99.99
2023-11-05T04:44:33.106Z,99.99
2023-11-05T04:45:05.779Z,99.99
2023-11-05T04:45:38.448Z,99.99
2023-11-05T04:46:11.209Z,99.99
2023-11-05T04:46:43.933Z,99.99
2023-11-05T04:47:16.593Z,99.99
2023-11-05T04:47:49.348Z,99.99
2023-11-05T04:48:22.137Z,99.99
2023-11-05T04:48:54.813Z,99.99
2023-11-05T04:49:27.565Z,99.99
2023-11-05T04:50:00.225Z,99.99
2023-11-05T04:50:32.899Z,99.99
2023-11-05T04:51:05.597Z,99.99
2023-11-05T04:51:38.250Z,99.99
2023-11-05T04:52:10.938Z,99.99
2023-11-05T04:52:43.734Z,99.99
2023-11-05T04:53:16.401Z,99.99
2023-11-05T04:53:49.075Z,99.99
2023-11-05T04:54:21.716Z,99.99
2023-11-05T04:54:54.434Z,99.99
2023-11-05T04:55:27.190Z,99.99
2023-11-05T04:55:59.929Z,99.99
2023-11-05T04:56:30.971Z,99.99
2023-11-05T04:57:03.645Z,99.99
2023-11-05T04:57:36.342Z,99.99
2023-11-05T04:58:09.053Z,99.99
2023-11-05T04:58:41.760Z,99.99
2023-11-05T04:59:14.459Z,99.99
2023-11-05T04:59:47.113Z,99.99
2023-11-05T05:00:19.788Z,99.99
2023-11-05T05:00:52.448Z,99.99
2023-11-05T05:01:25.131Z,99.99
2023-11-05T05:01:57.786Z,99.99
2023-11-05T05:02:30.497Z,99.99
2023-11-05T05:03:03.207Z,99.99
2023-11-05T05:03:35.943Z,99.99
2023-11-05T05:04:08.663Z,99.99
2023-11-05T05:04:41.446Z,99.99
2023-11-05T05:05:14.258Z,99.99
2023-11-05T05:05:46.984Z,99.99
2023-11-05T05:06:19.675Z,99.99
2023-11-05T05:06:52.369Z,99.99
2023-11-05T05:07:25.055Z,99.99
2023-11-05T05:08:00.467Z,99.99
2023-11-05T05:08:27.186Z,99.99
2023-11-05T05:08:59.846Z,99.99
2023-11-05T05:09:32.516Z,99.99
2023-11-05T05:10:03.660Z,99.99
2023-11-05T05:10:36.316Z,99.99
2023-11-05T05:11:08.988Z,99.99
2023-11-05T05:11:41.663Z,99.99
2023-11-05T05:12:14.334Z,99.99
2023-11-05T05:12:47.014Z,99.99
2023-11-05T05:13:19.824Z,99.99
2023-11-05T05:13:52.481Z,99.99
2023-11-05T05:14:25.172Z,99.99
2023-11-05T05:14:57.838Z,99.99
2023-11-05T05:15:30.511Z,99.99
2023-11-05T05:16:03.197Z,99.99
2023-11-05T05:16:36.045Z,99.99
2023-11-05T05:17:08.697Z,99.99
2023-11-05T05:17:41.431Z,99.99
2023-11-05T05:18:14.179Z,99.99
2023-11-05T05:18:46.939Z,99.99
2023-11-05T05:19:19.641Z,99.99
2023-11-05T05:19:52.337Z,99.99
2023-11-05T05:20:24.973Z,99.99
2023-11-05T05:20:57.641Z,99.99
2023-11-05T05:21:30.354Z,99.99
2023-11-05T05:22:03.007Z,99.99
2023-11-05T05:22:35.724Z,99.99
2023-11-05T05:23:08.445Z,99.99
2023-11-05T05:23:41.086Z,99.99
2023-11-05T05:24:13.777Z,99.99
2023-11-05T05:24:46.441Z,99.99
2023-11-05T05:25:19.300Z,99.99
2023-11-05T05:25:52.047Z,99.99
2023-11-05T05:26:24.725Z,99.99
2023-11-05T05:26:57.371Z,99.99
2023-11-05T05:27:30.026Z,99.99
2023-11-05T05:28:02.710Z,99.99
2023-11-05T05:28:35.415Z,99.99
2023-11-05T05:29:08.084Z,99.99
2023-11-05T05:29:40.782Z,99.99
2023-11-05T05:30:13.426Z,99.99
2023-11-05T05:30:46.095Z,99.99
2023-11-05T05:31:18.835Z,99.99
2023-11-05T05:31:51.555Z,99.99
2023-11-05T05:32:24.239Z,99.99
2023-11-05T05:32:57.049Z,99.99
2023-11-05T05:33:29.766Z,99.99
2023-11-05T05:34:02.483Z,99.99
2023-11-05T05:34:35.248Z,99.99
2023-11-05T05:35:07.944Z,99.99
2023-11-05T05:35:40.617Z,99.99
2023-11-05T05:36:13.326Z,99.99
2023-11-05T05:36:46.042Z,99.99
2023-11-05T05:37:18.695Z,99.99
2023-11-05T05:37:51.357Z,99.99
2023-11-05T05:38:24.049Z,99.99
2023-11-05T05:38:56.708Z,99.99
2023-11-05T05:39:29.440Z,99.99
2023-11-05T05:40:02.101Z,99.99
2023-11-05T05:40:34.815Z,99.99
2023-11-05T05:41:07.489Z,99.99
2023-11-05T05:41:40.146Z,99.99
2023-11-05T05:42:12.815Z,99.99
2023-11-05T05:42:45.525Z,99.99
2023-11-05T05:43:18.218Z,99.99
2023-11-05T05:43:50.871Z,99.99
2023-11-05T05:44:24.170Z,99.99
2023-11-05T05:44:50.374Z,99.99
2023-11-05T05:45:23.048Z,99.99
2023-11-05T05:45:55.825Z,99.99
2023-11-05T05:46:28.582Z,99.99
2023-11-05T05:47:01.249Z,99.99
2023-11-05T05:47:33.957Z,99.99
2023-11-05T05:48:06.702Z,99.99
2023-11-05T05:48:39.403Z,99.99
2023-11-05T05:49:12.160Z,99.99
2023-11-05T05:49:43.261Z,99.99
2023-11-05T05:50:15.936Z,99.99
2023-11-05T05:50:48.614Z,99.99
2023-11-05T05:51:21.304Z,99.99
2023-11-05T05:51:53.988Z,99.99
2023-11-05T05:52:26.769Z,99.99
2023-11-05T05:52:59.448Z,99.99
2023-11-05T05:53:32.116Z,99.99
2023-11-05T05:54:04.784Z,99.99
2023-11-05T05:54:37.468Z,99.99
2023-11-05T05:55:10.167Z,99.99
2023-11-05T05:55:42.925Z,99.99
2023-11-05T05:56:13.916Z,99.99
2023-11-05T05:56:46.580Z,99.99
2023-11-05T05:57:19.269Z,99.99
2023-11-05T05:57:51.936Z,99.99
2023-11-05T05:58:24.631Z,99.99
2023-11-05T05:58:57.294Z,99.99
2023-11-05T05:59:30.014Z,99.99
2023-11-05T06:00:02.657Z,99.99
2023-11-05T06:00:35.348Z,99.99
2023-11-05T06:01:08.127Z,99.99
2023-11-05T06:01:40.874Z,99.99
2023-11-05T06:02:13.641Z,99.99
2023-11-05T06:02:46.421Z,99.99
2023-11-05T06:03:19.066Z,99.99
2023-11-05T06:03:51.830Z,99.99
2023-11-05T06:04:24.490Z,99.99
2023-11-05T06:04:57.146Z,99.99
2023-11-05T06:05:29.866Z,99.99
2023-11-05T06:06:02.606Z,99.99
2023-11-05T06:06:35.271Z,99.99
2023-11-05T06:07:07.976Z,99.99
2023-11-05T06:07:40.727Z,99.99
2023-11-05T06:08:13.399Z,99.99
2023-11-05T06:08:46.089Z,99.99
2023-11-05T06:09:18.850Z,99.99
2023-11-05T06:09:51.511Z,99.99
2023-11-05T06:10:24.203Z,99.99
2023-11-05T06:10:56.870Z,99.99
2023-11-05T06:11:29.542Z,99.99
2023-11-05T06:12:02.207Z,99.99
2023-11-05T06:12:34.940Z,99.99
2023-11-05T06:13:07.643Z,99.99
2023-11-05T06:13:40.350Z,99.99
2023-11-05T06:14:11.399Z,99.99
2023-11-05T06:14:47.314Z,99.99
2023-11-05T06:15:16.185Z,99.99
2023-11-05T06:15:42.383Z,99.99
2023-11-05T06:16:15.045Z,99.99
2023-11-05T06:16:47.701Z,99.99
2023-11-05T06:17:20.388Z,99.99
2023-11-05T06:17:53.117Z,99.99
2023-11-05T06:18:25.868Z,99.99
2023-11-05T06:18:58.648Z,99.99
2023-11-05T06:19:31.345Z,99.99
2023-11-05T06:20:04.017Z,99.99
2023-11-05T06:20:36.686Z,99.99
2023-11-05T06:21:09.379Z,99.99
2023-11-05T06:21:42.054Z,99.99
2023-11-05T06:22:14.807Z,99.99
2023-11-05T06:22:47.511Z,99.99
2023-11-05T06:23:20.202Z,99.99
2023-11-05T06:23:52.885Z,99.99
2023-11-05T06:24:25.549Z,99.99
2023-11-05T06:24:58.219Z,99.99
2023-11-05T06:25:30.987Z,99.99
2023-11-05T06:26:03.689Z,99.99
2023-11-05T06:26:36.393Z,99.99
2023-11-05T06:27:09.065Z,99.99
2023-11-05T06:27:41.737Z,99.99
2023-11-05T06:28:14.435Z,99.99
2023-11-05T06:28:47.195Z,99.99
2023-11-05T06:29:19.857Z,99.99
2023-11-05T06:29:52.533Z,99.99
2023-11-05T06:30:25.213Z,99.99
2023-11-05T06:30:57.885Z,99.99
2023-11-05T06:31:30.579Z,99.99
2023-11-05T06:32:03.278Z,99.99
2023-11-05T06:32:35.951Z,99.99
2023-11-05T06:33:08.617Z,99.99
2023-11-05T06:33:41.300Z,99.99
2023-11-05T06:34:14.016Z,99.99
2023-11-05T06:34:46.696Z,99.99
2023-11-05T06:35:19.394Z,99.99
2023-11-05T06:35:52.049Z,99.99
2023-11-05T06:36:24.707Z,99.99
2023-11-05T06:36:57.391Z,99.99
2023-11-05T06:37:30.096Z,99.99
2023-11-05T06:38:02.759Z,99.99
2023-11-05T06:38:35.491Z,99.99
2023-11-05T06:39:08.157Z,99.99
2023-11-05T06:39:40.813Z,99.99
2023-11-05T06:40:13.586Z,99.99
2023-11-05T06:40:46.350Z,99.99
2023-11-05T06:41:18.979Z,99.99
2023-11-05T06:41:51.699Z,99.99
2023-11-05T06:42:24.384Z,99.99
2023-11-05T06:42:57.051Z,99.99
2023-11-05T06:43:29.787Z,99.99
2023-11-05T06:44:02.495Z,99.99
2023-11-05T06:44:35.194Z,99.99
2023-11-05T06:45:07.960Z,99.99
2023-11-05T06:45:40.600Z,99.99
2023-11-05T06:46:13.364Z,99.99
2023-11-05T06:46:46.092Z,99.99
2023-11-05T06:47:18.763Z,99.99
2023-11-05T06:47:51.553Z,99.99
2023-11-05T06:48:24.342Z,99.99
2023-11-05T06:48:57.077Z,99.99
2023-11-05T06:49:29.780Z,99.99
2023-11-05T06:50:02.484Z,99.99
2023-11-05T06:50:35.159Z,99.99
2023-11-05T06:51:07.827Z,99.99
2023-11-05T06:51:40.553Z,99.99
2023-11-05T06:52:11.639Z,99.99
2023-11-05T06:52:44.335Z,99.99
2023-11-05T06:53:16.976Z,99.99
2023-11-05T06:53:49.655Z,99.99
2023-11-05T06:54:22.416Z,99.99
2023-11-05T06:54:55.089Z,99.99
2023-11-05T06:55:27.746Z,99.99
2023-11-05T06:56:00.404Z,99.99
2023-11-05T06:56:33.086Z,99.99
2023-11-05T06:57:05.770Z,99.99
2023-11-05T06:57:38.748Z,99.99
2023-11-05T06:58:05.013Z,99.99
2023-11-05T06:58:37.701Z,99.99
2023-11-05T06:59:10.356Z,99.99
2023-11-05T06:59:43.036Z,99.99